Time;durP1;ratioP1;P1;durP2;ratioP2;P2;SDS_P1;SDS_P2;PMS_P1;PMS_P2;Temp;Humidity;BMP_temperature;BMP_pressure;BME280_temperature;BME280_humidity;BME280_pressure;Samples;Min_cycle;Max_cycle;Signal;HPM_P1;HPM_P2
2023/04/17 00:01:20;;;;;;;1.90;1.60;;;19.10;61.40;;;;;;5012242;28;20029;-60
2023/04/17 00:03:45;;;;;;;2.40;1.90;;;19.10;61.40;;;;;;5013325;28;20051;-56
2023/04/17 00:06:12;;;;;;;1.73;1.50;;;19.10;61.40;;;;;;5010171;28;20030;-57
2023/04/17 00:08:39;;;;;;;3.38;1.67;;;19.10;61.50;;;;;;5011982;28;20039;-58
2023/04/17 00:11:04;;;;;;;4.63;2.00;;;19.10;61.50;;;;;;5016261;28;20120;-58
2023/04/17 00:13:30;;;;;;;2.38;1.63;;;19.10;61.50;;;;;;5015833;28;20551;-59
2023/04/17 00:15:55;;;;;;;4.53;2.10;;;19.10;61.60;;;;;;5016022;28;20032;-57
2023/04/17 00:18:21;;;;;;;2.03;1.75;;;19.10;61.60;;;;;;5012473;28;20136;-57
2023/04/17 00:20:46;;;;;;;1.95;1.73;;;19.10;61.50;;;;;;5016123;28;20148;-57
2023/04/17 00:23:12;;;;;;;2.47;1.60;;;19.10;61.50;;;;;;5012899;28;20446;-55
2023/04/17 00:25:37;;;;;;;2.58;1.77;;;19.10;62.20;;;;;;5011523;28;20083;-55
2023/04/17 00:28:03;;;;;;;2.40;2.00;;;19.10;61.50;;;;;;5011548;28;20526;-58
2023/04/17 00:30:28;;;;;;;1.63;1.50;;;19.10;61.50;;;;;;5011133;28;20127;-56
2023/04/17 00:32:54;;;;;;;3.08;1.90;;;19.10;61.50;;;;;;5010969;28;20051;-55
2023/04/17 00:35:19;;;;;;;2.80;1.65;;;19.10;62.10;;;;;;5013353;28;20123;-55
2023/04/17 00:37:47;;;;;;;3.33;1.70;;;19.10;61.50;;;;;;5012239;28;20033;-56
2023/04/17 00:40:12;;;;;;;2.38;2.17;;;19.10;61.50;;;;;;5014101;28;20565;-56
2023/04/17 00:42:38;;;;;;;2.08;1.70;;;19.10;61.40;;;;;;5019160;28;20029;-57
2023/04/17 00:45:04;;;;;;;1.70;1.60;;;19.10;61.40;;;;;;5011299;28;20100;-58
2023/04/17 00:47:31;;;;;;;2.58;1.98;;;19.10;61.50;;;;;;5013002;28;20029;-59
2023/04/17 00:49:57;;;;;;;2.88;1.63;;;19.10;61.50;;;;;;5006582;28;20056;-57
2023/04/17 00:52:28;;;;;;;2.10;1.80;;;19.10;61.40;;;;;;5013244;28;20084;-55
2023/04/17 00:54:54;;;;;;;2.33;2.13;;;19.10;61.40;;;;;;5013031;28;20036;-58
2023/04/17 00:57:22;;;;;;;1.77;1.67;;;19.10;61.50;;;;;;5012391;28;20418;-57
2023/04/17 00:59:48;;;;;;;2.03;1.83;;;19.10;61.50;;;;;;5012424;28;20038;-56
2023/04/17 01:02:15;;;;;;;2.30;1.90;;;19.10;61.40;;;;;;5010393;28;20052;-57
2023/04/17 01:04:41;;;;;;;2.35;2.05;;;19.10;61.40;;;;;;5012041;28;20411;-56
2023/04/17 01:07:06;;;;;;;2.20;2.00;;;19.10;61.40;;;;;;5013963;28;20022;-58
2023/04/17 01:09:32;;;;;;;2.60;1.88;;;19.10;61.40;;;;;;5011473;28;20026;-57
2023/04/17 01:12:23;;;;;;;2.10;1.90;;;19.10;61.40;;;;;;5016387;28;20049;-56
2023/04/17 01:14:53;;;;;;;2.42;1.70;;;19.10;61.40;;;;;;5011027;28;20029;-57
2023/04/17 01:17:19;;;;;;;2.03;1.92;;;19.10;61.40;;;;;;5013436;28;20025;-57
2023/04/17 01:19:45;;;;;;;2.08;1.60;;;19.10;61.40;;;;;;5012832;28;20030;-57
2023/04/17 01:22:11;;;;;;;2.40;1.50;;;19.10;61.30;;;;;;5013278;28;20034;-56
2023/04/17 01:24:36;;;;;;;1.92;1.77;;;19.10;61.40;;;;;;5015975;28;20283;-55
2023/04/17 01:27:03;;;;;;;1.70;1.60;;;19.10;61.40;;;;;;5016659;28;20026;-57
2023/04/17 01:29:28;;;;;;;2.40;1.60;;;19.10;61.40;;;;;;5017418;28;20391;-53
2023/04/17 01:31:54;;;;;;;4.15;1.95;;;19.10;61.40;;;;;;5014055;28;20025;-55
2023/04/17 01:34:19;;;;;;;2.30;2.00;;;19.10;61.30;;;;;;5014266;28;20126;-56
2023/04/17 01:36:45;;;;;;;1.80;1.70;;;19.10;61.20;;;;;;5018139;28;20064;-57
2023/04/17 01:39:11;;;;;;;2.85;1.70;;;19.10;61.20;;;;;;5016744;28;20167;-58
2023/04/17 01:41:36;;;;;;;2.85;1.90;;;19.10;61.10;;;;;;5015211;28;20026;-56
2023/04/17 01:44:02;;;;;;;1.67;1.58;;;19.10;61.00;;;;;;5018267;28;20021;-57
2023/04/17 01:46:27;;;;;;;1.55;1.42;;;19.20;60.90;;;;;;5012330;28;20417;-58
2023/04/17 01:48:53;;;;;;;1.60;1.50;;;19.30;60.60;;;;;;5015708;28;20111;-58
2023/04/17 01:51:19;;;;;;;2.20;1.80;;;19.40;60.20;;;;;;5016745;28;20395;-57
2023/04/17 01:53:44;;;;;;;1.55;1.38;;;19.60;59.80;;;;;;5016340;28;20045;-55
2023/04/17 01:56:12;;;;;;;1.60;1.50;;;19.70;59.40;;;;;;5017082;28;20076;-56
2023/04/17 01:58:38;;;;;;;1.40;1.30;;;19.80;59.10;;;;;;5017626;28;20519;-58
2023/04/17 02:01:04;;;;;;;1.40;1.30;;;19.90;59.30;;;;;;5015566;28;20251;-54
2023/04/17 02:03:30;;;;;;;1.80;1.45;;;20.00;58.50;;;;;;5014530;28;20033;-53
2023/04/17 02:05:56;;;;;;;1.73;1.33;;;20.00;58.40;;;;;;5015368;28;20679;-57
2023/04/17 02:08:21;;;;;;;1.48;1.38;;;20.00;58.30;;;;;;5016042;28;20025;-55
2023/04/17 02:10:47;;;;;;;1.90;1.67;;;20.00;58.40;;;;;;5019282;28;20068;-54
2023/04/17 02:13:12;;;;;;;1.30;1.20;;;20.10;58.50;;;;;;5015166;28;20578;-57
2023/04/17 02:15:39;;;;;;;1.20;1.10;;;20.00;58.60;;;;;;5015569;28;20046;-53
2023/04/17 02:18:05;;;;;;;1.50;1.40;;;20.00;58.60;;;;;;5016134;28;20032;-58
2023/04/17 02:20:31;;;;;;;1.80;1.48;;;20.00;58.70;;;;;;5019068;28;20659;-60
2023/04/17 02:22:59;;;;;;;1.58;1.33;;;20.00;58.80;;;;;;5014713;28;20511;-58
2023/04/17 02:25:25;;;;;;;1.50;1.30;;;19.90;58.90;;;;;;5010666;28;20316;-57
2023/04/17 02:27:50;;;;;;;1.30;1.20;;;19.90;59.00;;;;;;5016167;28;20041;-52
2023/04/17 02:30:15;;;;;;;1.42;1.33;;;19.90;59.00;;;;;;5013005;28;20037;-56
2023/04/17 02:32:41;;;;;;;1.50;1.40;;;19.80;59.10;;;;;;5014700;28;20435;-56
2023/04/17 02:35:07;;;;;;;1.13;1.02;;;19.80;59.10;;;;;;5013352;28;20034;-56
2023/04/17 02:37:32;;;;;;;1.52;1.20;;;19.80;59.10;;;;;;5018003;28;20634;-58
2023/04/17 02:39:58;;;;;;;1.27;1.15;;;19.70;59.10;;;;;;5018127;28;20511;-53
2023/04/17 02:42:23;;;;;;;0.95;0.93;;;19.80;59.20;;;;;;5014477;28;20132;-58
2023/04/17 02:44:49;;;;;;;2.63;1.30;;;19.70;59.20;;;;;;5015185;28;20148;-58
2023/04/17 02:47:14;;;;;;;1.60;1.30;;;19.70;59.20;;;;;;5009158;28;20431;-58
2023/04/17 02:49:40;;;;;;;2.13;1.15;;;19.70;59.20;;;;;;5015877;28;20026;-56
2023/04/17 02:52:06;;;;;;;1.20;1.10;;;19.70;59.20;;;;;;5017875;28;20025;-57
2023/04/17 02:54:31;;;;;;;1.10;1.00;;;19.70;59.20;;;;;;5011383;28;20046;-57
2023/04/17 02:56:57;;;;;;;1.50;1.40;;;19.70;59.30;;;;;;5015296;28;20722;-57
2023/04/17 02:59:24;;;;;;;1.23;1.13;;;19.70;59.30;;;;;;5014435;28;20375;-58
2023/04/17 03:01:49;;;;;;;1.40;1.30;;;19.70;60.00;;;;;;5014761;28;20040;-58
2023/04/17 03:04:15;;;;;;;1.30;1.20;;;19.70;59.40;;;;;;5012814;28;20026;-58
2023/04/17 03:06:40;;;;;;;3.13;1.20;;;19.60;59.30;;;;;;5015424;28;20017;-56
2023/04/17 03:09:06;;;;;;;1.13;0.98;;;19.60;59.30;;;;;;5016187;28;20171;-57
2023/04/17 03:11:32;;;;;;;1.20;1.10;;;19.60;59.40;;;;;;5016117;28;20044;-56
2023/04/17 03:13:57;;;;;;;1.33;0.93;;;19.60;59.40;;;;;;5010524;28;20264;-57
2023/04/17 03:16:23;;;;;;;1.27;1.13;;;19.60;59.50;;;;;;5008498;28;20120;-58
2023/04/17 03:18:48;;;;;;;2.00;1.40;;;19.60;59.50;;;;;;5011271;28;20026;-58
2023/04/17 03:21:14;;;;;;;0.95;0.90;;;19.60;59.50;;;;;;5014161;28;20024;-58
2023/04/17 03:23:40;;;;;;;1.00;0.90;;;19.60;59.50;;;;;;5011018;28;20054;-57
2023/04/17 03:26:06;;;;;;;1.42;1.25;;;19.60;59.50;;;;;;5015105;28;20037;-58
2023/04/17 03:28:31;;;;;;;1.25;1.15;;;19.60;59.50;;;;;;5013928;28;20204;-59
2023/04/17 03:30:58;;;;;;;0.98;0.93;;;19.50;59.40;;;;;;5014092;28;20026;-57
2023/04/17 03:33:24;;;;;;;1.67;1.20;;;19.50;59.50;;;;;;5016692;28;21051;-52
2023/04/17 03:35:50;;;;;;;1.20;1.10;;;19.50;59.40;;;;;;5018007;28;20045;-56
2023/04/17 03:38:16;;;;;;;1.95;0.85;;;19.50;59.50;;;;;;5017587;28;20065;-57
2023/04/17 03:40:42;;;;;;;1.17;1.08;;;19.50;59.40;;;;;;5011024;28;20033;-57
2023/04/17 03:43:07;;;;;;;1.35;0.95;;;19.50;59.40;;;;;;5013737;28;20351;-57
2023/04/17 03:45:33;;;;;;;1.23;1.10;;;19.50;59.40;;;;;;5016061;28;20398;-57
2023/04/17 03:47:58;;;;;;;1.00;0.90;;;19.50;59.50;;;;;;5013416;28;20029;-58
2023/04/17 03:50:24;;;;;;;0.82;0.82;;;19.50;59.40;;;;;;5017645;28;20504;-58
2023/04/17 03:52:49;;;;;;;1.05;0.95;;;19.50;59.50;;;;;;5011470;28;20036;-56
2023/04/17 03:55:15;;;;;;;0.80;0.80;;;19.50;59.40;;;;;;5014080;28;20415;-55
2023/04/17 03:57:41;;;;;;;0.93;0.90;;;19.50;59.40;;;;;;5014186;28;20033;-57
2023/04/17 04:00:09;;;;;;;0.98;0.88;;;19.50;59.50;;;;;;5012324;28;20394;-55
2023/04/17 04:02:35;;;;;;;1.42;1.02;;;19.50;59.40;;;;;;5014730;28;20033;-56
2023/04/17 04:05:00;;;;;;;1.10;0.95;;;19.50;59.40;;;;;;5011941;28;20406;-57
2023/04/17 04:07:26;;;;;;;1.05;0.90;;;19.50;59.40;;;;;;5013970;28;20489;-57
2023/04/17 04:09:51;;;;;;;1.33;1.17;;;19.40;59.40;;;;;;5015759;28;20065;-56
2023/04/17 04:12:17;;;;;;;0.85;0.80;;;19.40;59.40;;;;;;5012198;28;20120;-57
2023/04/17 04:14:42;;;;;;;1.00;0.80;;;19.40;59.40;;;;;;5011825;28;20022;-57
2023/04/17 04:17:08;;;;;;;0.80;0.80;;;19.40;59.40;;;;;;5008871;28;20041;-56
2023/04/17 04:19:33;;;;;;;1.27;0.90;;;19.40;59.40;;;;;;5011315;28;20034;-53
2023/04/17 04:21:59;;;;;;;1.00;0.90;;;19.40;59.40;;;;;;5012632;28;20026;-56
2023/04/17 04:24:24;;;;;;;1.17;1.08;;;19.40;59.40;;;;;;5015602;28;20052;-56
2023/04/17 04:26:50;;;;;;;2.03;0.82;;;19.40;59.40;;;;;;5013910;28;20056;-58
2023/04/17 04:29:16;;;;;;;3.35;1.08;;;19.40;59.40;;;;;;5011852;28;20702;-55
2023/04/17 04:31:45;;;;;;;1.30;1.15;;;19.40;59.40;;;;;;5014836;28;20033;-53
2023/04/17 04:34:12;;;;;;;1.42;0.82;;;19.40;59.40;;;;;;5031948;23;20591;-62
2023/04/17 04:36:40;;;;;;;2.28;0.90;;;19.40;59.30;;;;;;5012829;28;20030;-62
2023/04/17 04:39:06;;;;;;;1.23;0.93;;;19.40;59.30;;;;;;5017570;28;20021;-62
2023/04/17 04:41:35;;;;;;;1.52;0.70;;;19.40;59.30;;;;;;5016210;28;20121;-62
2023/04/17 04:44:01;;;;;;;0.75;0.68;;;19.40;60.00;;;;;;5018761;28;20396;-62
2023/04/17 04:46:27;;;;;;;1.13;1.00;;;19.40;59.30;;;;;;5011951;28;20468;-60
2023/04/17 04:48:52;;;;;;;0.85;0.85;;;19.40;59.30;;;;;;5011795;28;20033;-62
2023/04/17 04:51:18;;;;;;;1.40;0.88;;;19.40;59.30;;;;;;5013222;28;20092;-62
2023/04/17 04:53:44;;;;;;;2.05;0.80;;;19.40;59.30;;;;;;5014367;28;20108;-62
2023/04/17 04:56:10;;;;;;;1.15;1.05;;;19.40;59.30;;;;;;5015441;28;20034;-61
2023/04/17 04:58:37;;;;;;;0.75;0.73;;;19.40;59.30;;;;;;5014857;28;20099;-61
2023/04/17 05:01:03;;;;;;;1.38;0.63;;;19.40;59.30;;;;;;5018638;28;20034;-62
2023/04/17 05:03:30;;;;;;;0.90;0.77;;;19.40;59.30;;;;;;5022103;28;20602;-61
2023/04/17 05:05:55;;;;;;;3.17;0.80;;;19.40;59.30;;;;;;5014735;28;20040;-61
2023/04/17 05:08:21;;;;;;;0.85;0.80;;;19.40;59.40;;;;;;5014370;28;20037;-61
2023/04/17 05:10:46;;;;;;;0.60;0.60;;;19.40;59.30;;;;;;5014450;28;20080;-61
2023/04/17 05:13:12;;;;;;;1.15;0.70;;;19.40;59.40;;;;;;5007849;28;20042;-61
2023/04/17 05:15:37;;;;;;;1.17;0.80;;;19.40;59.40;;;;;;5012621;28;20041;-60
2023/04/17 05:18:03;;;;;;;1.50;0.80;;;19.40;59.40;;;;;;5013000;28;20030;-62
2023/04/17 05:20:28;;;;;;;1.92;0.77;;;19.40;59.50;;;;;;5008690;28;20295;-60
2023/04/17 05:22:54;;;;;;;3.28;0.85;;;19.40;59.40;;;;;;5014966;28;20456;-61
2023/04/17 05:25:21;;;;;;;2.00;0.88;;;19.40;59.50;;;;;;5014810;28;20037;-59
2023/04/17 05:27:47;;;;;;;1.40;0.70;;;19.40;60.20;;;;;;5014792;28;20049;-60
2023/04/17 05:30:13;;;;;;;3.97;0.88;;;19.40;60.00;;;;;;5014596;28;20440;-62
2023/04/17 05:32:38;;;;;;;4.38;1.15;;;19.50;59.70;;;;;;5014395;28;20037;-60
2023/04/17 05:35:04;;;;;;;2.63;0.88;;;19.50;59.70;;;;;;5016399;28;20349;-61
2023/04/17 05:37:30;;;;;;;7.25;1.27;;;19.50;59.60;;;;;;5014202;28;20038;-60
2023/04/17 05:39:55;;;;;;;6.60;1.20;;;19.60;59.60;;;;;;5014333;28;20310;-61
2023/04/17 05:42:21;;;;;;;2.03;0.90;;;19.50;59.50;;;;;;5013020;28;20057;-61
2023/04/17 05:44:46;;;;;;;2.78;1.55;;;19.60;59.50;;;;;;5008785;28;20049;-60
2023/04/17 05:47:12;;;;;;;1.50;1.00;;;19.60;59.50;;;;;;5013905;28;20396;-59
2023/04/17 05:49:38;;;;;;;3.55;1.30;;;19.60;59.50;;;;;;5011572;28;20014;-60
2023/04/17 05:52:03;;;;;;;6.90;1.52;;;19.60;59.40;;;;;;5016151;28;20057;-61
2023/04/17 05:54:29;;;;;;;2.95;1.65;;;19.60;59.30;;;;;;5016434;28;20029;-61
2023/04/17 05:56:55;;;;;;;3.13;1.70;;;19.60;59.30;;;;;;5013736;28;20021;-61
2023/04/17 05:59:21;;;;;;;6.10;2.08;;;19.60;59.30;;;;;;5016984;28;20077;-61
2023/04/17 06:01:47;;;;;;;7.10;2.03;;;19.60;59.30;;;;;;5016112;28;20576;-62
2023/04/17 06:04:13;;;;;;;8.68;1.90;;;19.60;59.20;;;;;;5013368;28;20061;-60
2023/04/17 06:06:38;;;;;;;3.20;1.88;;;19.60;59.30;;;;;;5014807;28;20341;-61
2023/04/17 06:09:05;;;;;;;7.07;2.25;;;19.60;59.30;;;;;;5012490;28;20040;-61
2023/04/17 06:11:31;;;;;;;4.63;2.45;;;19.60;59.20;;;;;;5012755;28;20096;-60
2023/04/17 06:13:56;;;;;;;5.57;2.25;;;19.60;59.20;;;;;;5013006;28;20034;-57
2023/04/17 06:16:22;;;;;;;6.15;2.60;;;19.60;59.20;;;;;;5015770;28;20088;-60
2023/04/17 06:18:47;;;;;;;5.95;3.03;;;19.60;59.10;;;;;;5014595;28;20416;-58
2023/04/17 06:21:13;;;;;;;5.40;2.22;;;19.50;59.10;;;;;;5020809;28;20084;-60
2023/04/17 06:23:39;;;;;;;4.15;2.42;;;19.50;59.10;;;;;;5017932;28;20045;-60
2023/04/17 06:26:04;;;;;;;4.97;2.72;;;19.50;59.10;;;;;;5018199;28;20036;-61
2023/04/17 06:28:31;;;;;;;4.15;2.13;;;19.50;59.10;;;;;;5018364;28;20040;-61
2023/04/17 06:30:56;;;;;;;5.20;2.42;;;19.50;59.00;;;;;;5016680;28;20250;-58
2023/04/17 06:33:22;;;;;;;5.13;2.40;;;19.50;59.00;;;;;;5014376;28;20304;-59
2023/04/17 06:35:47;;;;;;;8.25;4.05;;;19.50;59.00;;;;;;5018896;28;20350;-59
2023/04/17 06:38:13;;;;;;;7.65;4.63;;;19.50;59.30;;;;;;5019523;28;20117;-59
2023/04/17 06:40:38;;;;;;;11.35;4.38;;;19.50;59.50;;;;;;5014322;28;20033;-53
2023/04/17 06:43:04;;;;;;;9.32;5.25;;;19.50;59.40;;;;;;5012011;28;20452;-60
2023/04/17 06:45:32;;;;;;;11.80;5.13;;;19.50;59.50;;;;;;5013929;28;20052;-59
2023/04/17 06:47:57;;;;;;;10.85;4.18;;;19.50;59.50;;;;;;5013146;28;20057;-62
2023/04/17 06:50:23;;;;;;;7.68;4.40;;;19.50;59.70;;;;;;5014569;28;20124;-58
2023/04/17 06:52:48;;;;;;;17.00;6.43;;;19.50;59.80;;;;;;5016222;28;20431;-60
2023/04/17 06:55:14;;;;;;;25.05;11.65;;;19.60;59.90;;;;;;5017488;28;20112;-57
2023/04/17 06:57:39;;;;;;;31.83;13.23;;;19.60;60.10;;;;;;5018123;28;20515;-62
2023/04/17 07:00:05;;;;;;;30.88;13.30;;;19.70;60.30;;;;;;5016662;28;20417;-60
2023/04/17 07:02:31;;;;;;;32.88;12.95;;;19.80;60.40;;;;;;5011675;28;20113;-61
2023/04/17 07:04:56;;;;;;;30.88;13.90;;;19.80;60.40;;;;;;5015080;28;20038;-57
2023/04/17 07:07:22;;;;;;;28.25;12.90;;;19.80;60.40;;;;;;4987584;28;20025;-61
2023/04/17 07:09:47;;;;;;;29.95;12.52;;;19.90;60.40;;;;;;5015879;28;20045;-59
2023/04/17 07:12:16;;;;;;;20.95;10.07;;;19.90;60.40;;;;;;5013040;28;20083;-60
2023/04/17 07:14:41;;;;;;;29.65;11.48;;;19.90;60.40;;;;;;5025560;28;20035;-60
2023/04/17 07:17:07;;;;;;;27.13;11.35;;;19.90;60.40;;;;;;5022436;28;20468;-58
2023/04/17 07:19:33;;;;;;;24.90;10.63;;;20.00;60.50;;;;;;5018533;28;20040;-59
2023/04/17 07:21:59;;;;;;;26.25;10.82;;;20.00;60.50;;;;;;5017517;28;20037;-56
2023/04/17 07:24:24;;;;;;;24.40;10.77;;;20.00;60.50;;;;;;5016581;28;20415;-59
2023/04/17 07:26:50;;;;;;;18.83;9.57;;;20.00;60.40;;;;;;5018413;28;20030;-61
2023/04/17 07:29:15;;;;;;;24.35;9.98;;;20.10;60.50;;;;;;5017720;28;20045;-60
2023/04/17 07:31:41;;;;;;;19.85;9.30;;;20.10;60.50;;;;;;5015512;28;20041;-61
2023/04/17 07:34:06;;;;;;;18.58;9.13;;;20.10;60.50;;;;;;5018532;28;20123;-61
2023/04/17 07:36:32;;;;;;;19.90;8.93;;;20.10;60.50;;;;;;5018713;28;20061;-56
2023/04/17 07:38:57;;;;;;;22.27;9.48;;;20.20;60.30;;;;;;5010523;28;20038;-60
2023/04/17 07:41:23;;;;;;;18.40;8.57;;;20.10;60.20;;;;;;5022363;28;20089;-60
2023/04/17 07:43:48;;;;;;;17.48;8.07;;;20.20;60.20;;;;;;5018487;28;20040;-61
2023/04/17 07:46:14;;;;;;;18.45;7.78;;;20.20;60.20;;;;;;5016832;28;20029;-61
2023/04/17 07:48:39;;;;;;;17.67;8.05;;;20.20;60.20;;;;;;5015357;28;20030;-61
2023/04/17 07:51:06;;;;;;;14.48;6.70;;;20.10;60.10;;;;;;5019253;28;20044;-61
2023/04/17 07:53:34;;;;;;;15.82;7.45;;;20.10;60.00;;;;;;5017094;28;20030;-52
2023/04/17 07:56:00;;;;;;;16.13;7.13;;;20.10;60.00;;;;;;5017363;28;20072;-58
2023/04/17 07:58:25;;;;;;;13.43;6.75;;;20.10;59.90;;;;;;5013097;28;20658;-60
2023/04/17 08:00:51;;;;;;;14.98;7.03;;;20.10;59.80;;;;;;5012366;28;20079;-60
2023/04/17 08:03:17;;;;;;;15.23;6.20;;;20.10;59.80;;;;;;5013755;28;20033;-61
2023/04/17 08:05:42;;;;;;;13.48;6.47;;;20.10;59.80;;;;;;5015010;28;20052;-61
2023/04/17 08:08:08;;;;;;;12.18;6.10;;;20.10;59.80;;;;;;5015623;28;20455;-58
2023/04/17 08:10:33;;;;;;;12.00;5.65;;;20.10;59.60;;;;;;5012165;28;20405;-61
2023/04/17 08:13:00;;;;;;;10.40;5.93;;;20.10;59.50;;;;;;5012728;28;20072;-61
2023/04/17 08:15:26;;;;;;;11.05;5.60;;;20.10;59.40;;;;;;5012775;28;20503;-53
2023/04/17 08:17:51;;;;;;;11.02;6.15;;;20.10;59.40;;;;;;5016266;28;20041;-60
2023/04/17 08:20:17;;;;;;;10.73;5.25;;;20.10;59.40;;;;;;5018151;28;20046;-57
2023/04/17 08:22:45;;;;;;;14.07;5.25;;;20.10;59.30;;;;;;5015790;28;20365;-61
2023/04/17 08:25:11;;;;;;;8.75;5.03;;;20.10;59.30;;;;;;5014300;28;20511;-62
2023/04/17 08:27:39;;;;;;;10.65;4.88;;;20.00;59.30;;;;;;5015120;28;20469;-57
2023/04/17 08:30:07;;;;;;;9.73;4.78;;;20.00;59.20;;;;;;5013941;28;20412;-55
2023/04/17 08:32:39;;;;;;;9.18;4.97;;;20.00;59.20;;;;;;5008730;28;20041;-60
2023/04/17 08:35:06;;;;;;;8.30;4.35;;;20.00;59.20;;;;;;5012674;28;20556;-61
2023/04/17 08:37:33;;;;;;;9.70;4.78;;;20.00;59.20;;;;;;5015933;28;20087;-60
2023/04/17 08:39:59;;;;;;;6.95;4.40;;;20.00;59.20;;;;;;5012358;28;20068;-60
2023/04/17 08:42:26;;;;;;;8.38;4.55;;;20.00;59.20;;;;;;5016303;28;20033;-58
2023/04/17 08:44:55;;;;;;;9.55;4.43;;;20.00;59.20;;;;;;5010485;28;20496;-61
2023/04/17 08:47:21;;;;;;;12.27;5.05;;;19.90;59.10;;;;;;5015786;28;20068;-61
2023/04/17 08:49:49;;;;;;;7.35;4.20;;;20.00;59.20;;;;;;5015408;28;20054;-58
2023/04/17 08:52:15;;;;;;;6.95;4.05;;;19.90;59.10;;;;;;5018238;28;20021;-62
2023/04/17 08:54:41;;;;;;;8.45;4.05;;;19.90;59.20;;;;;;5012659;28;20026;-56
2023/04/17 08:57:06;;;;;;;8.98;4.15;;;19.90;59.20;;;;;;5015548;28;20034;-60
2023/04/17 08:59:32;;;;;;;7.53;4.70;;;19.90;59.30;;;;;;5013727;28;20029;-56
2023/04/17 09:02:07;;;;;;;7.75;3.58;;;19.90;59.30;;;;;;5006320;28;20104;-58
2023/04/17 09:04:37;;;;;;;9.25;3.83;;;19.80;59.50;;;;;;5021836;28;20084;-60
2023/04/17 09:07:07;;;;;;;6.03;3.50;;;19.80;59.60;;;;;;5008631;28;20087;-61
2023/04/17 09:09:46;;;;;;;7.45;3.58;;;19.80;59.60;;;;;;5010832;28;20088;-57
2023/04/17 09:12:12;;;;;;;9.70;3.20;;;19.90;59.80;;;;;;5017108;28;20292;-61
2023/04/17 09:14:37;;;;;;;6.72;3.63;;;19.90;60.00;;;;;;5017165;28;20397;-55
2023/04/17 09:17:03;;;;;;;6.25;3.45;;;19.80;59.70;;;;;;5016585;28;20492;-60
2023/04/17 09:19:28;;;;;;;6.25;3.60;;;19.80;59.80;;;;;;5015474;28;20148;-61
2023/04/17 09:21:54;;;;;;;7.68;3.85;;;19.80;59.70;;;;;;5014250;28;20076;-61
2023/04/17 09:24:36;;;;;;;7.22;3.25;;;19.80;59.60;;;;;;5013144;28;20036;-58
2023/04/17 09:27:25;;;;;;;8.65;3.47;;;19.80;59.60;;;;;;5010694;28;20034;-60
2023/04/17 09:29:56;;;;;;;8.90;3.30;;;19.80;59.60;;;;;;5014058;28;20346;-60
2023/04/17 09:32:21;;;;;;;10.55;3.97;;;19.80;59.60;;;;;;5015584;28;20030;-60
2023/04/17 09:34:47;;;;;;;4.20;3.00;;;19.80;59.60;;;;;;5013691;28;20044;-60
2023/04/17 09:37:12;;;;;;;5.57;2.90;;;19.80;60.20;;;;;;5012571;28;20176;-60
2023/04/17 09:39:39;;;;;;;6.70;2.88;;;19.80;59.60;;;;;;5012923;28;20034;-60
2023/04/17 09:42:05;;;;;;;8.60;3.53;;;19.70;59.50;;;;;;5018690;28;20026;-61
2023/04/17 09:44:31;;;;;;;4.78;2.75;;;19.70;59.50;;;;;;5019566;28;21898;-59
2023/04/17 09:46:58;;;;;;;7.28;2.55;;;19.70;59.40;;;;;;5017167;28;20396;-59
2023/04/17 09:49:41;;;;;;;5.07;2.65;;;19.70;59.40;;;;;;5022835;28;20029;-56
2023/04/17 09:52:08;;;;;;;6.00;3.08;;;19.70;59.30;;;;;;5018368;28;20084;-52
2023/04/17 09:54:37;;;;;;;7.07;2.90;;;19.70;59.40;;;;;;5014879;28;20488;-54
2023/04/17 09:57:05;;;;;;;3.85;2.72;;;19.70;59.40;;;;;;5018813;28;20030;-57
2023/04/17 09:59:31;;;;;;;5.63;3.20;;;19.60;59.40;;;;;;5015949;28;20026;-55
2023/04/17 10:01:57;;;;;;;4.40;3.05;;;19.60;59.40;;;;;;5010830;28;20117;-56
2023/04/17 10:04:22;;;;;;;5.72;3.22;;;19.60;59.40;;;;;;5014261;28;20029;-57
2023/04/17 10:06:49;;;;;;;6.72;3.00;;;19.60;59.40;;;;;;5014310;28;20041;-57
2023/04/17 10:09:14;;;;;;;5.78;3.20;;;19.60;59.40;;;;;;5016674;28;20040;-55
2023/04/17 10:11:43;;;;;;;6.38;2.55;;;19.60;59.50;;;;;;5017807;28;20033;-54
2023/04/17 10:14:26;;;;;;;5.18;3.03;;;19.60;59.50;;;;;;5014946;28;20030;-58
2023/04/17 10:16:52;;;;;;;4.65;3.30;;;19.60;59.50;;;;;;5019249;28;20040;-52
2023/04/17 10:19:29;;;;;;;5.13;3.00;;;19.60;59.50;;;;;;5018905;28;20064;-58
2023/04/17 10:22:14;;;;;;;5.63;3.35;;;19.60;59.50;;;;;;5016022;28;20034;-55
2023/04/17 10:24:43;;;;;;;7.20;2.50;;;19.60;59.50;;;;;;5017027;28;20029;-54
2023/04/17 10:27:24;;;;;;;6.65;3.20;;;19.60;59.50;;;;;;5008284;28;20034;-53
2023/04/17 10:30:04;;;;;;;4.63;3.33;;;19.60;59.50;;;;;;5014305;28;20038;-58
2023/04/17 10:32:33;;;;;;;5.05;3.35;;;19.60;59.50;;;;;;5017105;28;20034;-60
2023/04/17 10:35:21;;;;;;;4.68;2.80;;;19.50;59.40;;;;;;5015184;28;20087;-59
2023/04/17 10:37:47;;;;;;;7.20;2.58;;;19.60;59.50;;;;;;5012002;28;20084;-58
2023/04/17 10:40:19;;;;;;;4.47;2.80;;;19.60;59.50;;;;;;5019315;28;20500;-58
2023/04/17 10:43:06;;;;;;;5.60;3.10;;;19.60;59.50;;;;;;5020056;28;20100;-60
2023/04/17 10:45:53;;;;;;;3.30;2.35;;;19.50;59.50;;;;;;5016622;28;20087;-59
2023/04/17 10:48:36;;;;;;;4.53;3.28;;;19.60;59.50;;;;;;5007063;28;20037;-60
2023/04/17 10:54:01;;;;;;;3.00;2.67;;;19.60;59.50;;;;;;5017679;28;20120;-61
2023/04/17 10:56:37;;;;;;;5.43;2.78;;;19.60;59.60;;;;;;5018130;28;20041;-59
2023/04/17 10:59:07;;;;;;;5.03;2.55;;;19.60;59.70;;;;;;5014610;28;20030;-60
2023/04/17 11:01:47;;;;;;;5.22;2.60;;;19.50;59.70;;;;;;5017357;28;20486;-61
2023/04/17 11:04:32;;;;;;;5.20;3.42;;;19.60;59.80;;;;;;5015455;28;20056;-60
2023/04/17 11:06:59;;;;;;;7.25;2.63;;;19.50;59.80;;;;;;5011770;28;21138;-60
2023/04/17 11:09:27;;;;;;;7.55;2.60;;;19.50;60.40;;;;;;5017634;28;20053;-60
2023/04/17 11:11:53;;;;;;;4.13;2.42;;;19.60;59.90;;;;;;5018536;28;20505;-61
2023/04/17 11:14:21;;;;;;;5.35;2.97;;;19.50;60.00;;;;;;5014467;28;20120;-61
2023/04/17 11:16:48;;;;;;;5.20;2.60;;;19.50;59.90;;;;;;5019658;28;20038;-59
2023/04/17 11:19:24;;;;;;;3.78;2.47;;;19.60;60.00;;;;;;5016993;28;20026;-60
2023/04/17 11:21:52;;;;;;;3.95;3.10;;;19.60;59.90;;;;;;5016094;28;20421;-60
2023/04/17 11:24:28;;;;;;;5.20;2.63;;;19.60;59.90;;;;;;5017347;28;20033;-61
2023/04/17 11:26:55;;;;;;;4.78;2.55;;;19.60;59.80;;;;;;5012577;28;20053;-61
2023/04/17 11:29:23;;;;;;;3.63;2.58;;;19.70;59.90;;;;;;5013619;28;20256;-62
2023/04/17 11:31:50;;;;;;;5.30;2.70;;;19.60;59.90;;;;;;5011442;28;20447;-62
2023/04/17 11:34:16;;;;;;;6.47;3.17;;;19.70;59.90;;;;;;5010331;28;20124;-61
2023/04/17 11:36:56;;;;;;;5.15;2.72;;;19.70;59.90;;;;;;5015156;28;20029;-61
2023/04/17 11:39:27;;;;;;;4.28;2.85;;;19.70;59.80;;;;;;5018654;28;20033;-61
2023/04/17 11:41:53;;;;;;;4.65;2.72;;;19.70;59.90;;;;;;5013367;28;20045;-62
2023/04/17 11:44:19;;;;;;;3.67;2.47;;;19.70;59.80;;;;;;5018034;28;20033;-61
2023/04/17 11:46:51;;;;;;;4.90;2.20;;;19.70;59.80;;;;;;5016304;28;20136;-61
2023/04/17 11:49:31;;;;;;;3.78;2.67;;;19.70;59.80;;;;;;5016289;28;20033;-62
2023/04/17 11:52:00;;;;;;;4.65;2.80;;;19.70;59.90;;;;;;5016588;28;20034;-60
2023/04/17 11:54:30;;;;;;;6.25;2.80;;;19.70;59.90;;;;;;5015467;28;20087;-61
2023/04/17 11:57:12;;;;;;;3.55;2.75;;;19.70;60.60;;;;;;5013686;28;20240;-62
2023/04/17 11:59:40;;;;;;;3.55;2.75;;;19.70;60.00;;;;;;5009682;28;20505;-61
2023/04/17 12:02:07;;;;;;;3.95;2.53;;;19.70;60.00;;;;;;5010212;28;20068;-61
2023/04/17 12:04:35;;;;;;;5.07;2.53;;;19.70;60.10;;;;;;5013439;28;20033;-62
2023/04/17 12:07:01;;;;;;;4.00;2.95;;;19.70;60.10;;;;;;5014041;28;20049;-62
2023/04/17 12:09:30;;;;;;;3.55;2.30;;;19.60;60.10;;;;;;5016546;28;20504;-61
2023/04/17 12:11:57;;;;;;;5.10;2.50;;;19.70;60.10;;;;;;5013771;28;20381;-61
2023/04/17 12:14:23;;;;;;;4.57;2.75;;;19.70;60.20;;;;;;5014300;28;20091;-61
2023/04/17 12:16:50;;;;;;;5.00;3.28;;;19.60;60.10;;;;;;5014125;28;20042;-61
2023/04/17 12:19:16;;;;;;;3.75;2.63;;;19.60;60.10;;;;;;5016154;28;20741;-61
2023/04/17 12:21:46;;;;;;;7.03;3.17;;;19.60;60.20;;;;;;5013975;28;20033;-61
2023/04/17 12:24:12;;;;;;;2.95;2.65;;;19.60;60.20;;;;;;5015474;28;20033;-61
2023/04/17 12:26:47;;;;;;;3.83;2.60;;;19.60;60.30;;;;;;5014182;28;20077;-61
2023/04/17 12:29:13;;;;;;;;;;;19.60;60.20;;;;;;5014163;28;20030;-61
2023/04/17 12:31:39;;;;;;;3.13;2.60;;;19.60;60.30;;;;;;5013549;28;19963;-61
2023/04/17 12:34:05;;;;;;;3.78;2.88;;;19.60;60.30;;;;;;5010975;28;20124;-61
2023/04/17 12:36:30;;;;;;;4.32;2.53;;;19.60;60.30;;;;;;5017210;28;20430;-61
2023/04/17 12:38:56;;;;;;;2.55;2.35;;;19.60;60.30;;;;;;5013266;28;20053;-60
2023/04/17 12:41:24;;;;;;;3.72;2.70;;;19.60;60.30;;;;;;5010706;28;20292;-61
2023/04/17 12:43:49;;;;;;;3.13;2.83;;;19.60;60.30;;;;;;5014996;28;20042;-62
2023/04/17 12:46:15;;;;;;;2.53;2.33;;;19.60;60.30;;;;;;5016709;28;20451;-61
2023/04/17 12:48:40;;;;;;;4.00;2.13;;;19.60;60.30;;;;;;5014360;28;20030;-61